»·PEaware :: N572PC KBOI-KSLC

N572PC :: KBOI-KSLC

FLIGHT INFORMATION

Flight Status: Arrived
Operator: Privately registered:
United States
More flights under this callsign
Pilot: Christopher J. (304)
Aircraft: PILATUS PC-12 EAGLE
(PC12)
More flights by this aircraft type
Origin: KBOI Boise Air Terminal/Gowen
United States
Destination: KSLC Salt Lake City Intl
United States
More flights between these airports :: More routes between these airports
Route: ROARR BYI BEARR5
File this flight plan on PilotEdge
Remarks:
Altitude:
(Current/Filed)
23,000ft
Speed:
(Current/Filed)
240kts
Departed: 17-Mar-20 04:26 PM
Arrived: 17-Mar-20 05:42 PM
Distance/Time
Traveled:
253nm/1:16
Distance/Time
To Go:
Arrived

Flight Plot

Page will automatically refresh every two minutes.


Map Options




Map Legend


Flown Route
Filed Route
Departure Airport
Arrival Airport
Navaid (VOR, NDB)
Fix

Horizontal Profiles

Position Reports

Time Latitude Longitude Heading Altitude Ground
Speed
17-Mar-20 16:12 43.570820 -116.232316 270 2875ft 0kts
17-Mar-20 16:13 43.570820 -116.232316 270 2875ft 0kts
17-Mar-20 16:14 43.570820 -116.232316 270 2875ft 0kts
17-Mar-20 16:15 43.570820 -116.232316 270 2875ft 0kts
17-Mar-20 16:16 43.570820 -116.232316 270 2875ft 0kts
17-Mar-20 16:17 43.570820 -116.232316 270 2875ft 0kts
17-Mar-20 16:18 43.570820 -116.232316 270 2875ft 0kts
17-Mar-20 16:19 43.570820 -116.232316 270 2875ft 0kts
17-Mar-20 16:20 43.570820 -116.232316 270 2875ft 0kts
17-Mar-20 16:21 43.570858 -116.235273 294 2875ft 17kts
17-Mar-20 16:22 43.570969 -116.235991 252 2875ft 0kts
17-Mar-20 16:23 43.570969 -116.235991 252 2875ft 0kts
17-Mar-20 16:24 43.570831 -116.236263 218 2875ft 9kts
17-Mar-20 16:25 43.562802 -116.212943 113 3392ft 115kts
17-Mar-20 16:26 43.546221 -116.174220 111 4906ft 121kts
17-Mar-20 16:27 43.533001 -116.131161 113 6457ft 124kts
17-Mar-20 16:28 43.521189 -116.087000 114 8023ft 128kts
17-Mar-20 16:29 43.505653 -116.030077 114 9676ft 175kts
17-Mar-20 16:30 43.488147 -115.965702 114 11651ft 184kts
17-Mar-20 16:31 43.469078 -115.900042 118 13634ft 186kts
17-Mar-20 16:32 43.449254 -115.839458 118 15467ft 187kts
17-Mar-20 16:33 43.425005 -115.766337 118 16573ft 219kts
17-Mar-20 16:34 43.399358 -115.689123 118 17861ft 223kts
17-Mar-20 16:35 43.373324 -115.611166 119 19145ft 225kts
17-Mar-20 16:36 43.347327 -115.533512 119 20381ft 224kts
17-Mar-20 16:37 43.321264 -115.455958 119 21572ft 223kts
17-Mar-20 16:38 43.295362 -115.379097 120 22698ft 222kts
17-Mar-20 16:39 43.267711 -115.316937 126 22789ft 247kts
17-Mar-20 16:40 43.229785 -115.234827 126 22786ft 261kts
17-Mar-20 16:41 43.190404 -115.149949 126 22789ft 265kts
17-Mar-20 16:42 43.151526 -115.066345 127 22794ft 258kts
17-Mar-20 16:43 43.113500 -114.984917 127 22802ft 253kts
17-Mar-20 16:44 43.074395 -114.901424 127 22808ft 254kts
17-Mar-20 16:45 43.036074 -114.819826 127 22805ft 255kts
17-Mar-20 16:46 42.997839 -114.738469 128 22804ft 254kts
17-Mar-20 16:47 42.959749 -114.657764 128 22804ft 252kts
17-Mar-20 16:48 42.921938 -114.577869 129 22803ft 250kts
17-Mar-20 16:49 42.884269 -114.498505 129 22811ft 248kts
17-Mar-20 16:50 42.846893 -114.420043 129 22811ft 247kts
17-Mar-20 16:51 42.809373 -114.341412 130 22811ft 247kts
17-Mar-20 16:52 42.771896 -114.263079 130 22810ft 246kts
17-Mar-20 16:53 42.734473 -114.185037 130 22804ft 246kts
17-Mar-20 16:54 42.697004 -114.107126 130 22795ft 247kts
17-Mar-20 16:55 42.659364 -114.029097 130 22785ft 247kts
17-Mar-20 16:56 42.621708 -113.951164 130 22781ft 247kts
17-Mar-20 16:57 42.583974 -113.873529 133 22779ft 245kts
17-Mar-20 16:58 42.537468 -113.808314 141 22780ft 240kts
17-Mar-20 16:59 42.492576 -113.741227 149 22787ft 236kts
17-Mar-20 17:00 42.443123 -113.681422 142 22780ft 240kts
17-Mar-20 17:01 42.395446 -113.618142 141 22779ft 240kts
17-Mar-20 17:02 42.347792 -113.554699 141 22779ft 240kts
17-Mar-20 17:03 42.300123 -113.491368 141 22778ft 240kts
17-Mar-20 17:04 42.252523 -113.428258 141 22778ft 240kts
17-Mar-20 17:05 42.204724 -113.365012 141 22778ft 240kts
17-Mar-20 17:06 42.157030 -113.302096 142 22776ft 240kts
17-Mar-20 17:07 42.109409 -113.239339 142 22776ft 239kts
17-Mar-20 17:08 42.061819 -113.176815 142 22775ft 239kts
17-Mar-20 17:09 42.014228 -113.114414 142 22775ft 239kts
17-Mar-20 17:10 41.966609 -113.052115 142 22775ft 239kts
17-Mar-20 17:11 41.918942 -112.989809 142 22782ft 239kts
17-Mar-20 17:12 41.871224 -112.927648 143 22810ft 240kts
17-Mar-20 17:14 41.822915 -112.864855 144 22823ft 243kts
17-Mar-20 17:15 41.773954 -112.801502 144 22437ft 249kts
17-Mar-20 17:16 41.724897 -112.738127 144 21083ft 243kts
17-Mar-20 17:17 41.676449 -112.675526 144 19747ft 241kts
17-Mar-20 17:18 41.628422 -112.613732 143 18448ft 239kts
17-Mar-20 17:19 41.580678 -112.552370 142 17171ft 237kts
17-Mar-20 17:20 41.533479 -112.491819 142 16028ft 231kts
17-Mar-20 17:21 41.490852 -112.437001 143 15936ft 200kts
17-Mar-20 17:22 41.449818 -112.384823 142 15269ft 209kts
17-Mar-20 17:23 41.407039 -112.330318 142 14421ft 218kts
17-Mar-20 17:24 41.362462 -112.273576 142 13374ft 220kts
17-Mar-20 17:25 41.319906 -112.219451 142 12317ft 206kts
17-Mar-20 17:26 41.278975 -112.167532 142 11257ft 202kts
17-Mar-20 17:27 41.240930 -112.119325 142 10977ft 171kts
17-Mar-20 17:28 41.203960 -112.092961 171 10981ft 141kts
17-Mar-20 17:29 41.171294 -112.070321 163 11062ft 128kts
17-Mar-20 17:29 41.144420 -112.055243 163 11063ft 123kts
17-Mar-20 17:30 41.114136 -112.034550 153 11065ft 123kts
17-Mar-20 17:32 41.077704 -112.001396 154 10853ft 174kts
17-Mar-20 17:33 41.033414 -111.969672 174 10566ft 178kts
17-Mar-20 17:33 40.994607 -111.965419 182 9867ft 152kts
17-Mar-20 17:35 40.950083 -111.958734 181 8113ft 120kts
17-Mar-20 17:36 40.923318 -111.957853 192 6776ft 81kts
17-Mar-20 17:36 40.904833 -111.959946 186 6417ft 93kts
17-Mar-20 17:38 40.872803 -111.962303 186 5721ft 93kts
17-Mar-20 17:38 40.849663 -111.962735 182 5267ft 104kts
17-Mar-20 17:39 40.822128 -111.961123 186 4734ft 91kts
17-Mar-20 17:40 40.799059 -111.961932 185 4306ft 71kts
17-Mar-20 17:41 40.787932 -111.962008 179 4231ft 27kts
17-Mar-20 17:42 40.785907 -111.960441 140 4231ft 0kts
17-Mar-20 17:43 40.785907 -111.960441 140 4231ft 0kts
17-Mar-20 17:45 40.784074 -111.960027 180 4231ft 10kts
17-Mar-20 17:45 40.782264 -111.959276 173 4231ft 12kts
17-Mar-20 17:46 40.781725 -111.958680 1 4231ft 0kts

Navigation Log

Ident Type
Flight plan parsing failed, navigation log unavailable